createdAt,value
2022-10-11T00:02:38.457Z,2.85
2022-10-11T00:05:40.453Z,3.65
2022-10-11T00:08:41.953Z,3.30
2022-10-11T00:11:43.530Z,3.10
2022-10-11T00:14:44.988Z,2.95
2022-10-11T00:17:47.185Z,3.28
2022-10-11T00:23:50.361Z,2.90
2022-10-11T00:26:51.814Z,2.85
2022-10-11T00:29:53.468Z,2.90
2022-10-11T00:32:54.924Z,2.80
2022-10-11T00:35:58.669Z,3.22
2022-10-11T00:39:00.148Z,3.05
2022-10-11T00:42:01.815Z,3.42
2022-10-11T00:45:31.147Z,4.28
2022-10-11T00:48:50.406Z,4.28
2022-10-11T00:51:58.454Z,4.05
2022-10-11T00:55:04.881Z,4.95
2022-10-11T00:58:07.330Z,3.78
2022-10-11T01:01:09.029Z,3.70
2022-10-11T01:04:10.628Z,4.35
2022-10-11T01:07:13.405Z,3.80
2022-10-11T01:10:14.849Z,4.18
2022-10-11T01:13:47.371Z,4.20
2022-10-11T01:20:21.540Z,4.10
2022-10-11T01:23:42.541Z,3.97
2022-10-11T01:27:37.067Z,4.03
2022-10-11T01:30:38.966Z,5.25
2022-10-11T01:33:49.879Z,4.65
2022-10-11T01:37:05.651Z,4.40
2022-10-11T01:40:16.333Z,4.93
2022-10-11T01:43:20.288Z,4.47
2022-10-11T01:46:22.330Z,4.03
2022-10-11T01:52:33.500Z,4.28
2022-10-11T01:55:49.685Z,4.50
2022-10-11T01:59:12.302Z,4.32
2022-10-11T02:02:41.148Z,5.25
2022-10-11T02:06:01.192Z,4.90
2022-10-11T02:09:10.960Z,5.13
2022-10-11T02:12:17.985Z,5.03
2022-10-11T02:15:22.644Z,4.93
2022-10-11T02:18:29.965Z,4.65
2022-10-11T02:21:34.440Z,4.88
2022-10-11T02:24:40.099Z,5.00
2022-10-11T02:27:45.396Z,4.63
2022-10-11T02:30:49.574Z,4.82
2022-10-11T02:34:09.580Z,4.50
2022-10-11T02:37:26.665Z,4.50
2022-10-11T02:40:33.406Z,4.40
2022-10-11T02:43:43.504Z,4.80
2022-10-11T02:46:46.612Z,4.78
2022-10-11T02:49:48.053Z,4.88
2022-10-11T02:52:49.820Z,5.00
2022-10-11T02:55:53.380Z,4.40
2022-10-11T02:58:54.800Z,4.50
2022-10-11T03:01:56.292Z,4.80
2022-10-11T03:04:57.753Z,4.63
2022-10-11T03:07:59.288Z,4.57
2022-10-11T03:11:00.978Z,4.85
2022-10-11T03:14:02.564Z,5.15
2022-10-11T03:17:23.752Z,4.60
2022-10-11T03:20:25.428Z,4.97
2022-10-11T03:23:26.889Z,4.70
2022-10-11T03:26:28.341Z,4.43
2022-10-11T03:29:29.818Z,5.10
2022-10-11T03:32:31.276Z,4.95
2022-10-11T03:35:32.697Z,4.72
2022-10-11T03:38:34.269Z,4.82
2022-10-11T03:41:35.725Z,5.15
2022-10-11T03:44:38.659Z,4.72
2022-10-11T03:47:40.505Z,5.10
2022-10-11T03:50:42.301Z,5.38
2022-10-11T03:53:43.814Z,4.97
2022-10-11T03:56:45.318Z,5.00
2022-10-11T03:59:48.007Z,4.40
2022-10-11T04:02:49.460Z,4.93
2022-10-11T04:05:51.001Z,4.47
2022-10-11T04:08:52.541Z,5.22
2022-10-11T04:11:53.940Z,4.65
2022-10-11T04:14:55.321Z,5.30
2022-10-11T04:17:56.739Z,5.40
2022-10-11T04:20:58.147Z,4.90
2022-10-11T04:23:59.584Z,5.10
2022-10-11T04:27:01.026Z,5.03
2022-10-11T04:30:02.608Z,5.22
2022-10-11T04:33:04.020Z,5.43
2022-10-11T04:36:06.194Z,4.68
2022-10-11T04:39:08.548Z,5.00
2022-10-11T04:45:11.584Z,4.38
2022-10-11T04:48:13.993Z,4.97
2022-10-11T04:51:15.442Z,4.82
2022-10-11T04:54:16.874Z,5.25
2022-10-11T04:57:18.303Z,4.93
2022-10-11T05:00:19.789Z,5.03
2022-10-11T05:03:21.370Z,4.35
2022-10-11T05:06:23.044Z,4.50
2022-10-11T05:09:24.561Z,4.57
2022-10-11T05:12:26.174Z,4.70
2022-10-11T05:15:28.096Z,5.75
2022-10-11T05:18:29.956Z,4.88
2022-10-11T05:21:32.001Z,5.35
2022-10-11T05:24:33.480Z,5.18
2022-10-11T05:27:34.947Z,5.80
2022-10-11T05:30:36.418Z,5.45
2022-10-11T05:33:38.321Z,6.95
2022-10-11T05:36:39.840Z,6.25
2022-10-11T05:39:41.259Z,6.88
2022-10-11T05:42:42.902Z,6.28
2022-10-11T05:45:45.221Z,7.85
2022-10-11T05:48:46.685Z,7.70
2022-10-11T05:51:48.086Z,7.40
2022-10-11T05:54:49.544Z,8.57
2022-10-11T05:57:55.872Z,9.38
2022-10-11T06:00:57.436Z,8.43
2022-10-11T06:03:58.970Z,8.98
2022-10-11T06:07:00.363Z,8.70
2022-10-11T06:10:01.869Z,9.87
2022-10-11T06:13:03.384Z,9.63
2022-10-11T06:16:05.432Z,9.25
2022-10-11T06:22:11.764Z,10.18
2022-10-11T06:25:13.185Z,10.68
2022-10-11T06:28:14.714Z,10.77
2022-10-11T06:31:16.182Z,11.57
2022-10-11T06:34:17.575Z,12.77
2022-10-11T06:37:19.349Z,12.37
2022-10-11T06:40:20.737Z,13.27
2022-10-11T06:43:22.698Z,13.60
2022-10-11T06:46:26.669Z,14.23
2022-10-11T06:49:28.107Z,14.05
2022-10-11T06:52:29.615Z,14.35
2022-10-11T06:55:31.769Z,14.32
2022-10-11T06:58:33.454Z,15.70
2022-10-11T07:01:34.893Z,15.40
2022-10-11T07:04:36.477Z,15.88
2022-10-11T07:07:37.912Z,16.42
2022-10-11T07:10:39.308Z,16.38
2022-10-11T07:13:41.064Z,16.70
2022-10-11T07:16:42.504Z,17.05
2022-10-11T07:19:43.972Z,17.17
2022-10-11T07:22:45.406Z,18.40
2022-10-11T07:25:47.319Z,17.77
2022-10-11T07:28:48.927Z,17.48
2022-10-11T07:31:50.918Z,18.77
2022-10-11T07:34:52.341Z,19.23
2022-10-11T07:37:53.811Z,18.98
2022-10-11T07:40:55.282Z,20.85
2022-10-11T07:43:59.118Z,20.05
2022-10-11T07:47:00.556Z,20.92
2022-10-11T07:50:02.213Z,20.70
2022-10-11T07:53:04.135Z,20.45
2022-10-11T07:56:06.534Z,20.20
2022-10-11T07:59:08.357Z,20.58
2022-10-11T08:02:11.999Z,21.55
2022-10-11T08:05:13.707Z,20.45
2022-10-11T08:08:15.247Z,20.60
2022-10-11T08:11:28.478Z,20.55
2022-10-11T08:14:29.909Z,21.83
2022-10-11T08:17:31.301Z,22.25
2022-10-11T08:20:33.094Z,21.47
2022-10-11T08:23:34.785Z,19.42
2022-10-11T08:26:36.330Z,21.02
2022-10-11T08:29:37.748Z,21.15
2022-10-11T08:32:39.704Z,21.67
2022-10-11T08:35:41.124Z,21.85
2022-10-11T08:38:42.664Z,18.90
2022-10-11T08:41:56.411Z,18.13
2022-10-11T08:45:11.007Z,15.82
2022-10-11T08:48:18.470Z,14.68
2022-10-11T08:51:38.522Z,14.27
2022-10-11T08:54:49.376Z,13.80
2022-10-11T08:57:54.095Z,12.50
2022-10-11T09:00:57.935Z,12.82
2022-10-11T09:04:03.709Z,13.50
2022-10-11T09:07:08.873Z,12.63
2022-10-11T09:10:31.909Z,10.48
2022-10-11T09:13:45.758Z,9.38
2022-10-11T09:17:05.547Z,9.00
2022-10-11T09:20:15.793Z,8.45
2022-10-11T09:23:51.993Z,6.95
2022-10-11T09:27:12.821Z,7.00
2022-10-11T09:30:20.139Z,6.97
2022-10-11T09:33:39.946Z,7.07
2022-10-11T09:36:57.545Z,6.70
2022-10-11T09:40:27.253Z,7.55
2022-10-11T09:43:28.738Z,6.65
2022-10-11T09:46:30.756Z,7.28
2022-10-11T09:49:38.773Z,6.35
2022-10-11T09:52:51.536Z,6.65
2022-10-11T09:56:01.741Z,6.63
2022-10-11T09:59:30.971Z,6.75
2022-10-11T10:02:49.542Z,6.97
2022-10-11T10:06:13.868Z,6.63
2022-10-11T10:09:27.064Z,6.65
2022-10-11T10:12:30.403Z,6.45
2022-10-11T10:15:37.260Z,6.10
2022-10-11T10:18:51.867Z,7.68
2022-10-11T10:21:55.480Z,8.20
2022-10-11T10:25:00.093Z,7.05
2022-10-11T10:28:04.858Z,7.00
2022-10-11T10:31:22.251Z,7.70
2022-10-11T10:34:33.475Z,8.38
2022-10-11T10:37:42.672Z,8.02
2022-10-11T10:40:48.165Z,8.15
2022-10-11T10:43:57.060Z,7.78
2022-10-11T10:47:01.533Z,7.38
2022-10-11T10:50:18.835Z,7.03
2022-10-11T10:53:29.420Z,7.30
2022-10-11T10:56:38.778Z,7.28
2022-10-11T10:59:46.307Z,6.28
2022-10-11T11:03:05.505Z,6.53
2022-10-11T11:06:12.112Z,6.20
2022-10-11T11:09:22.779Z,6.45
2022-10-11T11:12:37.507Z,7.00
2022-10-11T11:15:42.875Z,6.72
2022-10-11T11:18:58.308Z,6.78
2022-10-11T11:22:15.983Z,6.05
2022-10-11T11:25:48.229Z,6.20
2022-10-11T11:29:19.745Z,5.22
2022-10-11T11:32:55.589Z,5.40
2022-10-11T11:36:03.094Z,5.05
2022-10-11T11:39:11.110Z,5.32
2022-10-11T11:42:26.482Z,5.20
2022-10-11T11:45:33.683Z,5.15
2022-10-11T11:48:35.542Z,4.80
2022-10-11T11:51:42.708Z,4.85
2022-10-11T11:55:04.176Z,5.10
2022-10-11T11:58:33.935Z,5.18
2022-10-11T12:02:01.412Z,5.28
2022-10-11T12:05:06.689Z,5.25
2022-10-11T12:08:37.843Z,5.10
2022-10-11T12:11:41.428Z,5.60
2022-10-11T12:14:42.917Z,5.45
2022-10-11T12:17:56.501Z,5.00
2022-10-11T12:21:16.673Z,5.35
2022-10-11T12:24:18.021Z,5.60
2022-10-11T12:27:39.707Z,5.47
2022-10-11T12:30:47.114Z,5.10
2022-10-11T12:34:02.641Z,6.10
2022-10-11T12:37:19.564Z,6.28
2022-10-11T12:40:54.818Z,6.78
2022-10-11T12:44:14.792Z,6.53
2022-10-11T12:47:32.847Z,6.20
2022-10-11T12:50:37.411Z,6.15
2022-10-11T12:54:27.548Z,5.75
2022-10-11T12:57:53.147Z,6.03
2022-10-11T13:00:55.577Z,6.20
2022-10-11T13:04:00.988Z,6.60
2022-10-11T13:07:07.447Z,6.75
2022-10-11T13:10:15.842Z,6.60
2022-10-11T13:13:24.686Z,6.03
2022-10-11T13:16:29.284Z,6.15
2022-10-11T13:19:32.922Z,6.90
2022-10-11T13:22:35.760Z,5.93
2022-10-11T13:25:37.735Z,7.28
2022-10-11T13:28:39.269Z,6.18
2022-10-11T13:31:41.124Z,6.40
2022-10-11T13:34:46.669Z,6.45
2022-10-11T13:37:48.802Z,6.70
2022-10-11T13:46:55.085Z,6.32
2022-10-11T13:50:16.977Z,6.20
2022-10-11T13:53:18.313Z,6.57
2022-10-11T13:56:19.812Z,6.70
2022-10-11T13:59:28.041Z,6.70
2022-10-11T14:02:30.068Z,5.80
2022-10-11T14:05:36.756Z,6.15
2022-10-11T14:08:46.665Z,6.30
2022-10-11T14:11:48.744Z,6.47
2022-10-11T14:17:51.699Z,6.00
2022-10-11T14:20:53.183Z,6.70
2022-10-11T14:24:07.434Z,6.65
2022-10-11T14:27:17.248Z,7.20
2022-10-11T14:30:26.602Z,6.72
2022-10-11T14:33:28.967Z,7.13
2022-10-11T14:36:30.416Z,6.43
2022-10-11T14:39:33.113Z,7.20
2022-10-11T14:42:34.544Z,6.90
2022-10-11T14:45:36.584Z,6.78
2022-10-11T14:48:54.208Z,6.80
2022-10-11T14:51:58.472Z,6.63
2022-10-11T14:55:00.599Z,6.95
2022-10-11T14:58:02.423Z,7.13
2022-10-11T15:01:03.923Z,7.03
2022-10-11T15:04:05.402Z,7.00
2022-10-11T15:07:07.144Z,7.38
2022-10-11T15:10:27.844Z,6.68
2022-10-11T15:13:29.251Z,7.47
2022-10-11T15:16:31.130Z,7.25
2022-10-11T15:19:32.710Z,7.28
2022-10-11T15:22:34.114Z,7.68
2022-10-11T15:25:37.729Z,8.05
2022-10-11T15:28:39.257Z,7.78
2022-10-11T15:31:40.820Z,7.78
2022-10-11T15:34:42.291Z,7.57
2022-10-11T15:37:44.314Z,7.45
2022-10-11T15:40:46.936Z,7.38
2022-10-11T15:43:49.336Z,7.95
2022-10-11T15:46:51.099Z,8.00
2022-10-11T15:49:52.556Z,7.88
2022-10-11T15:52:54.491Z,7.70
2022-10-11T15:55:59.061Z,7.00
2022-10-11T15:59:00.556Z,7.43
2022-10-11T16:02:02.066Z,7.30
2022-10-11T16:05:03.897Z,7.70
2022-10-11T16:08:05.462Z,7.85
2022-10-11T16:11:08.250Z,7.63
2022-10-11T16:14:09.769Z,7.28
2022-10-11T16:17:11.334Z,8.18
2022-10-11T16:20:13.166Z,7.65
2022-10-11T16:23:15.305Z,7.68
2022-10-11T16:29:18.435Z,7.75
2022-10-11T16:32:20.390Z,8.10
2022-10-11T16:35:22.050Z,8.18
2022-10-11T16:38:23.472Z,8.05
2022-10-11T16:41:24.951Z,7.65
2022-10-11T16:44:27.743Z,8.20
2022-10-11T16:47:29.189Z,8.02
2022-10-11T16:50:33.340Z,7.90
2022-10-11T16:53:37.313Z,8.00
2022-10-11T16:56:40.102Z,8.10
2022-10-11T16:59:42.049Z,8.48
2022-10-11T17:02:43.809Z,9.40
2022-10-11T17:05:45.260Z,8.73
2022-10-11T17:08:47.108Z,9.05
2022-10-11T17:11:48.726Z,9.25
2022-10-11T17:14:50.729Z,8.32
2022-10-11T17:17:55.627Z,8.65
2022-10-11T17:21:04.449Z,9.27
2022-10-11T17:24:06.697Z,9.70
2022-10-11T17:27:08.394Z,9.85
2022-10-11T17:30:10.828Z,10.55
2022-10-11T17:33:12.202Z,9.95
2022-10-11T17:36:19.461Z,9.38
2022-10-11T17:39:23.412Z,9.15
2022-10-11T17:42:24.988Z,9.85
2022-10-11T17:45:26.636Z,9.65
2022-10-11T17:48:29.044Z,9.85
2022-10-11T17:51:32.132Z,9.73
2022-10-11T17:54:33.807Z,12.90
2022-10-11T17:57:35.524Z,13.25
2022-10-11T18:00:39.025Z,12.48
2022-10-11T18:03:41.565Z,11.60
2022-10-11T18:06:45.108Z,10.82
2022-10-11T18:09:46.706Z,10.73
2022-10-11T18:12:52.233Z,10.77
2022-10-11T18:15:54.033Z,10.27
2022-10-11T18:18:57.383Z,10.60
2022-10-11T18:22:01.998Z,9.88
2022-10-11T18:25:06.890Z,10.32
2022-10-11T18:31:14.136Z,10.07
2022-10-11T18:34:16.266Z,10.02
2022-10-11T18:37:17.848Z,10.80
2022-10-11T18:40:19.411Z,10.77
2022-10-11T18:43:21.039Z,9.93
2022-10-11T18:46:23.845Z,10.00
2022-10-11T18:49:25.651Z,10.50
2022-10-11T18:52:27.229Z,11.02
2022-10-11T18:55:28.857Z,10.73
2022-10-11T18:58:31.797Z,10.05
2022-10-11T19:01:40.072Z,10.23
2022-10-11T19:04:41.954Z,10.68
2022-10-11T19:07:43.605Z,10.65
2022-10-11T19:10:45.497Z,9.80
2022-10-11T19:13:47.092Z,10.30
2022-10-11T19:16:51.414Z,9.32
2022-10-11T19:19:53.097Z,8.88
2022-10-11T19:22:54.704Z,9.63
2022-10-11T19:25:59.309Z,9.18
2022-10-11T19:29:06.571Z,9.13
2022-10-11T19:32:08.253Z,9.23
2022-10-11T19:35:10.091Z,9.13
2022-10-11T19:38:11.770Z,9.35
2022-10-11T19:41:15.684Z,9.77
2022-10-11T19:44:17.432Z,9.52
2022-10-11T19:47:19.035Z,8.90
2022-10-11T19:50:20.653Z,8.23
2022-10-11T19:53:22.417Z,8.27
2022-10-11T19:56:24.505Z,7.80
2022-10-11T19:59:28.046Z,7.05
2022-10-11T20:02:29.858Z,6.50
2022-10-11T20:05:37.335Z,6.00
2022-10-11T20:08:39.452Z,5.60
2022-10-11T20:11:41.003Z,5.20
2022-10-11T20:14:42.837Z,5.03
2022-10-11T20:17:50.325Z,4.38
2022-10-11T20:20:56.841Z,4.47
2022-10-11T20:24:01.425Z,4.47
2022-10-11T20:27:06.885Z,4.70
2022-10-11T20:30:09.536Z,4.68
2022-10-11T20:33:11.154Z,4.63
2022-10-11T20:36:23.866Z,4.60
2022-10-11T20:39:25.465Z,4.28
2022-10-11T20:42:29.755Z,4.30
2022-10-11T20:45:31.437Z,4.35
2022-10-11T20:48:33.937Z,4.30
2022-10-11T20:51:38.316Z,4.00
2022-10-11T20:54:41.491Z,4.00
2022-10-11T20:57:42.908Z,4.07
2022-10-11T21:00:44.414Z,3.95
2022-10-11T21:03:46.189Z,4.45
2022-10-11T21:06:48.598Z,3.20
2022-10-11T21:09:49.999Z,3.55
2022-10-11T21:12:51.377Z,3.80
2022-10-11T21:15:53.229Z,4.00
2022-10-11T21:18:57.597Z,3.72
2022-10-11T21:21:59.058Z,3.67
2022-10-11T21:25:00.550Z,3.75
2022-10-11T21:28:03.040Z,4.00
2022-10-11T21:31:12.579Z,3.90
2022-10-11T21:34:14.136Z,3.55
2022-10-11T21:37:15.575Z,3.67
2022-10-11T21:40:17.357Z,4.40
2022-10-11T21:43:18.786Z,3.58
2022-10-11T21:46:41.712Z,3.55
2022-10-11T21:49:47.503Z,3.60
2022-10-11T21:52:49.095Z,3.65
2022-10-11T21:55:57.370Z,3.40
2022-10-11T21:58:58.802Z,3.47
2022-10-11T22:02:02.011Z,3.38
2022-10-11T22:05:03.807Z,3.90
2022-10-11T22:08:05.259Z,3.58
2022-10-11T22:11:07.824Z,3.77
2022-10-11T22:14:09.327Z,3.40
2022-10-11T22:17:10.760Z,3.90
2022-10-11T22:20:12.193Z,3.90
2022-10-11T22:23:13.770Z,4.10
2022-10-11T22:26:18.310Z,3.70
2022-10-11T22:29:19.723Z,4.28
2022-10-11T22:32:21.164Z,3.83
2022-10-11T22:35:22.989Z,3.40
2022-10-11T22:38:25.299Z,3.47
2022-10-11T22:44:28.239Z,3.78
2022-10-11T22:47:29.636Z,3.30
2022-10-11T22:50:31.049Z,3.43
2022-10-11T22:53:32.641Z,3.13
2022-10-11T22:56:34.097Z,3.65
2022-10-11T22:59:35.711Z,3.80
2022-10-11T23:02:37.108Z,4.07
2022-10-11T23:05:38.571Z,4.07
2022-10-11T23:08:40.197Z,4.25
2022-10-11T23:11:42.696Z,3.42
2022-10-11T23:14:44.327Z,3.92
2022-10-11T23:17:46.130Z,3.83
2022-10-11T23:20:47.605Z,3.78
2022-10-11T23:23:52.294Z,4.00
2022-10-11T23:26:53.683Z,4.05
2022-10-11T23:29:55.119Z,3.77
2022-10-11T23:32:56.765Z,3.83
2022-10-11T23:35:58.257Z,4.38
2022-10-11T23:38:59.763Z,4.50
2022-10-11T23:42:01.196Z,3.83
2022-10-11T23:45:02.811Z,3.80
2022-10-11T23:48:04.544Z,3.78
2022-10-11T23:51:06.495Z,3.92
2022-10-11T23:54:08.127Z,4.03
2022-10-11T23:57:09.639Z,4.45
